Time;durP1;ratioP1;P1;durP2;ratioP2;P2;SDS_P1;SDS_P2;PMS_P1;PMS_P2;Temp;Humidity;BMP_temperature;BMP_pressure;BME280_temperature;BME280_humidity;BME280_pressure;Samples;Min_cycle;Max_cycle;Signal;HPM_P1;HPM_P2
2021/12/03 00:04:08;;;;;;;7.18;4.95;;;308.10;2304.00;;;;;;5073592;28;20035;-76
2021/12/03 00:09:34;;;;;;;6.07;4.35;;;308.10;2304.00;;;;;;5075942;28;20036;-76
2021/12/03 00:11:59;;;;;;;6.55;4.07;;;308.00;2304.00;;;;;;5073296;28;20040;-76
2021/12/03 00:14:59;;;;;;;9.32;5.28;;;308.00;2304.00;;;;;;5057118;28;20072;-76
2021/12/03 00:17:50;;;;;;;8.65;5.30;;;308.00;2304.00;;;;;;5074822;28;20056;-76
2021/12/03 00:20:20;;;;;;;8.85;5.07;;;308.00;2304.00;;;;;;5072182;28;20033;-76
2021/12/03 00:29:01;;;;;;;7.97;4.72;;;308.00;2304.00;;;;;;5074366;28;20031;-76
2021/12/03 00:31:48;;;;;;;7.07;5.15;;;308.00;2304.00;;;;;;5073122;28;20032;-76
2021/12/03 00:34:31;;;;;;;5.28;4.35;;;308.00;2304.00;;;;;;5073192;28;20021;-76
2021/12/03 00:39:50;;;;;;;6.90;4.35;;;308.00;2304.00;;;;;;5071584;28;20032;-76
2021/12/03 00:42:19;;;;;;;9.60;6.18;;;307.90;2304.00;;;;;;5074255;28;20100;-76
2021/12/03 00:44:58;;;;;;;5.90;4.38;;;308.00;2304.00;;;;;;5073897;28;20020;-76
2021/12/03 00:47:31;;;;;;;9.88;6.93;;;308.00;2304.00;;;;;;5071668;28;20029;-76
2021/12/03 00:50:14;;;;;;;17.63;8.05;;;307.90;2304.00;;;;;;5072764;28;20085;-75
2021/12/03 00:52:39;;;;;;;8.57;4.75;;;307.90;2304.00;;;;;;5055032;28;20028;-76
2021/12/03 00:55:33;;;;;;;9.05;4.85;;;307.70;2304.00;;;;;;5073478;28;20136;-76
2021/12/03 00:58:05;;;;;;;12.63;7.78;;;307.70;2304.00;;;;;;5072425;28;20379;-75
2021/12/03 01:00:34;;;;;;;7.80;5.60;;;307.80;2304.00;;;;;;5055111;28;20013;-76
2021/12/03 01:03:25;;;;;;;7.93;5.60;;;307.80;2304.00;;;;;;5070374;28;20092;-76
2021/12/03 01:05:55;;;;;;;12.65;5.43;;;307.80;2304.00;;;;;;5060376;28;20025;-76
2021/12/03 01:08:24;;;;;;;16.15;5.45;;;307.80;2304.00;;;;;;5055332;28;20036;-76
2021/12/03 01:10:55;;;;;;;14.40;7.20;;;307.90;2304.00;;;;;;5069651;28;20024;-76
2021/12/03 01:13:57;;;;;;;8.30;5.28;;;308.10;2304.00;;;;;;5054830;28;20040;-76
2021/12/03 01:16:27;;;;;;;12.55;6.05;;;308.10;2304.00;;;;;;5073215;28;20024;-76
2021/12/03 01:22:00;;;;;;;12.37;8.67;;;307.80;2304.00;;;;;;5072884;28;20032;-76
2021/12/03 01:24:25;;;;;;;14.20;9.68;;;307.50;2304.00;;;;;;5071011;28;20032;-75
2021/12/03 01:27:13;;;;;;;15.15;10.40;;;307.40;2304.00;;;;;;5055204;28;20646;-75
2021/12/03 01:29:57;;;;;;;15.80;11.45;;;307.40;2304.00;;;;;;5073330;28;20376;-75
2021/12/03 01:32:35;;;;;;;17.85;11.88;;;307.20;2304.00;;;;;;5072268;28;20024;-76
2021/12/03 01:35:23;;;;;;;15.85;11.75;;;282.40;2278.40;;;;;;5069402;28;20462;-75
2021/12/03 01:37:55;;;;;;;16.08;11.18;;;282.40;2278.40;;;;;;5055030;28;20028;-75
2021/12/03 01:40:27;;;;;;;18.23;12.25;;;282.30;2278.40;;;;;;5073094;28;20089;-75
2021/12/03 01:42:59;;;;;;;22.10;12.95;;;282.20;2278.40;;;;;;5072709;28;20025;-75
2021/12/03 01:48:17;;;;;;;17.85;13.82;;;281.70;2278.40;;;;;;5072056;28;20078;-75
2021/12/03 01:51:08;;;;;;;22.05;15.32;;;256.90;2252.80;;;;;;5054344;28;20119;-75
2021/12/03 01:53:49;;;;;;;20.27;15.65;;;256.80;2252.80;;;;;;5054211;28;20028;-75
2021/12/03 01:56:29;;;;;;;21.58;16.45;;;256.60;2252.80;;;;;;5066682;28;20546;-75
2021/12/03 01:58:58;;;;;;;23.00;16.90;;;256.50;2252.80;;;;;;5050513;28;20623;-75
2021/12/03 02:01:29;;;;;;;25.45;17.70;;;256.40;2252.80;;;;;;5054892;28;20508;-75
2021/12/03 02:04:08;;;;;;;24.45;16.00;;;256.30;2252.80;;;;;;5072321;28;20025;-75
2021/12/03 02:06:38;;;;;;;27.42;19.48;;;256.30;2252.80;;;;;;5054334;28;20028;-75
2021/12/03 02:09:09;;;;;;;27.23;19.33;;;256.10;2252.80;;;;;;5072401;28;20551;-75
2021/12/03 02:12:00;;;;;;;29.65;20.67;;;256.00;2252.80;;;;;;5070837;28;20040;-75
2021/12/03 02:14:26;;;;;;;30.25;21.60;;;231.30;2252.80;;;;;;5051955;28;20025;-75
2021/12/03 02:16:52;;;;;;;31.42;22.13;;;231.30;2252.80;;;;;;5053998;28;20357;-75
2021/12/03 02:19:20;;;;;;;26.95;21.63;;;231.20;2252.80;;;;;;5054030;28;20086;-75
2021/12/03 02:21:59;;;;;;;29.23;21.00;;;231.10;2252.80;;;;;;5053764;28;20514;-75
2021/12/03 02:24:27;;;;;;;31.60;23.08;;;231.10;2252.80;;;;;;5070044;28;20025;-75
2021/12/03 02:27:39;;;;;;;30.33;22.23;;;231.00;2252.80;;;;;;5071853;28;20047;-75
2021/12/03 02:30:18;;;;;;;32.28;23.20;;;231.00;2252.80;;;;;;5052912;28;20527;-75
2021/12/03 02:32:54;;;;;;;33.00;23.63;;;231.00;2252.80;;;;;;5070307;28;20467;-75
2021/12/03 02:35:25;;;;;;;31.42;23.25;;;231.10;2252.80;;;;;;5052979;28;20030;-75
2021/12/03 02:37:52;;;;;;;36.22;24.13;;;231.10;2252.80;;;;;;5071078;28;20040;-75
2021/12/03 02:40:25;;;;;;;32.10;23.35;;;231.10;2252.80;;;;;;5051020;28;20032;-75
2021/12/03 02:42:55;;;;;;;30.35;22.27;;;231.10;2252.80;;;;;;5053608;28;20028;-75
2021/12/03 02:45:36;;;;;;;31.05;20.83;;;231.10;2252.80;;;;;;5070082;28;20052;-75
2021/12/03 02:48:06;;;;;;;32.78;23.73;;;231.10;2252.80;;;;;;5052137;28;20031;-76
2021/12/03 02:50:33;;;;;;;30.77;21.83;;;231.00;2252.80;;;;;;5071523;28;20403;-75
2021/12/03 02:53:33;;;;;;;29.10;20.13;;;231.00;2252.80;;;;;;5051800;28;20043;-75
2021/12/03 02:56:12;;;;;;;24.08;17.83;;;231.00;2252.80;;;;;;5068632;28;20056;-75
2021/12/03 02:59:02;;;;;;;20.05;15.07;;;230.90;2252.80;;;;;;5069232;28;20028;-76
2021/12/03 03:01:34;;;;;;;14.55;11.50;;;230.80;2252.80;;;;;;5070088;28;20017;-76
2021/12/03 03:04:06;;;;;;;19.23;12.27;;;230.70;2252.80;;;;;;5051604;28;20391;-75
2021/12/03 03:06:36;;;;;;;17.95;12.60;;;230.60;2252.80;;;;;;5072192;28;20106;-75
2021/12/03 03:09:09;;;;;;;14.85;10.68;;;230.60;2252.80;;;;;;5069256;28;20025;-76
2021/12/03 03:11:54;;;;;;;14.30;10.68;;;230.60;2252.80;;;;;;5052651;28;20082;-75
2021/12/03 03:14:26;;;;;;;14.60;9.73;;;230.50;2252.80;;;;;;5067666;28;20033;-75
2021/12/03 03:17:08;;;;;;;13.63;9.38;;;230.40;2252.80;;;;;;5053767;28;20032;-75
2021/12/03 03:19:37;;;;;;;16.67;12.10;;;230.40;2252.80;;;;;;5044841;28;20061;-75
2021/12/03 03:22:40;;;;;;;12.60;9.05;;;230.40;2252.80;;;;;;5053439;28;20025;-75
2021/12/03 03:25:28;;;;;;;12.95;9.45;;;205.70;2252.80;;;;;;5068957;28;20028;-75
2021/12/03 03:28:16;;;;;;;14.85;10.65;;;205.60;2252.80;;;;;;5071598;28;20052;-75
2021/12/03 03:31:07;;;;;;;14.40;10.02;;;205.60;2252.80;;;;;;5070261;28;20082;-75
2021/12/03 03:34:06;;;;;;;13.48;9.20;;;205.60;2252.80;;;;;;5069941;28;20036;-75
2021/12/03 03:36:48;;;;;;;14.80;10.32;;;205.60;2252.80;;;;;;5068661;28;20391;-76
2021/12/03 03:39:41;;;;;;;17.30;9.65;;;205.50;2252.80;;;;;;5071075;28;20039;-75
2021/12/03 03:42:07;;;;;;;13.88;8.75;;;205.40;2252.80;;;;;;5070323;28;20032;-75
2021/12/03 03:44:49;;;;;;;12.48;8.93;;;205.30;2252.80;;;;;;5053198;28;20123;-75
2021/12/03 03:47:26;;;;;;;8.85;6.45;;;205.20;2252.80;;;;;;5069134;28;20021;-76
2021/12/03 03:49:55;;;;;;;8.75;6.10;;;205.20;2252.80;;;;;;5052831;28;20016;-75
2021/12/03 03:52:42;;;;;;;9.43;5.00;;;205.10;2252.80;;;;;;5067815;28;20033;-75
2021/12/03 03:55:18;;;;;;;6.88;4.75;;;205.10;2252.80;;;;;;5051556;28;20537;-75
2021/12/03 03:58:01;;;;;;;7.45;4.80;;;205.10;2252.80;;;;;;5053145;28;20032;-75
2021/12/03 04:00:42;;;;;;;10.48;6.78;;;205.10;2252.80;;;;;;5067994;28;20032;-76
2021/12/03 04:03:26;;;;;;;14.45;9.95;;;205.00;2252.80;;;;;;5051534;28;20021;-75
2021/12/03 04:06:20;;;;;;;13.43;9.10;;;205.00;2252.80;;;;;;5070788;28;20021;-75
2021/12/03 04:09:20;;;;;;;9.30;6.63;;;205.00;2252.80;;;;;;5069016;28;20085;-75
2021/12/03 04:12:10;;;;;;;10.60;7.63;;;204.80;2252.80;;;;;;5069312;28;20472;-75
2021/12/03 04:14:39;;;;;;;11.25;7.35;;;204.80;2252.80;;;;;;5071187;28;20071;-75
2021/12/03 04:17:23;;;;;;;11.20;7.68;;;204.80;2252.80;;;;;;5074251;28;20356;-75
2021/12/03 04:20:11;;;;;;;9.80;7.60;;;204.80;2252.80;;;;;;5071205;28;20028;-75
2021/12/03 04:22:44;;;;;;;11.43;7.38;;;180.10;2252.80;;;;;;5073533;28;20023;-75
2021/12/03 04:25:31;;;;;;;11.52;7.57;;;180.00;2252.80;;;;;;5073512;28;20025;-75
2021/12/03 04:28:02;;;;;;;13.07;9.05;;;179.90;2252.80;;;;;;5073590;28;20024;-75
2021/12/03 04:31:02;;;;;;;13.63;9.40;;;179.90;2252.80;;;;;;5056084;28;20031;-75
2021/12/03 04:33:43;;;;;;;17.67;11.65;;;179.80;2252.80;;;;;;5073090;28;20021;-75
2021/12/03 04:36:12;;;;;;;15.95;11.32;;;179.80;2252.80;;;;;;5052987;28;20020;-75
2021/12/03 04:38:53;;;;;;;17.85;10.25;;;179.80;2252.80;;;;;;5056345;28;20040;-75
2021/12/03 04:41:34;;;;;;;14.05;8.57;;;179.80;2252.80;;;;;;5072619;28;20047;-76
2021/12/03 04:44:06;;;;;;;15.05;9.57;;;179.80;2252.80;;;;;;5044404;28;20029;-76
2021/12/03 04:46:32;;;;;;;13.77;9.68;;;179.70;2252.80;;;;;;5054891;28;20096;-76
2021/12/03 04:52:14;;;;;;;8.60;5.95;;;179.70;2252.80;;;;;;5073993;28;20169;-76
2021/12/03 04:54:45;;;;;;;11.73;6.75;;;179.60;2252.80;;;;;;5074283;28;20162;-76
2021/12/03 04:57:23;;;;;;;11.38;6.75;;;179.60;2252.80;;;;;;5074266;28;20538;-75
2021/12/03 04:59:58;;;;;;;13.98;7.75;;;179.60;2252.80;;;;;;5073838;28;20028;-75
2021/12/03 05:02:26;;;;;;;14.57;8.90;;;179.60;2252.80;;;;;;5055570;28;20032;-75
2021/12/03 05:05:13;;;;;;;16.35;9.55;;;179.50;2252.80;;;;;;5055790;28;20028;-76
2021/12/03 05:08:16;;;;;;;13.13;8.30;;;179.50;2252.80;;;;;;5056847;28;20033;-75
2021/12/03 05:10:58;;;;;;;10.93;6.68;;;179.50;2252.80;;;;;;5072223;28;20490;-75
2021/12/03 05:13:37;;;;;;;11.23;6.10;;;179.50;2252.80;;;;;;5074280;28;20024;-75
2021/12/03 05:18:58;;;;;;;16.08;9.45;;;179.50;2252.80;;;;;;5069029;28;20059;-76
2021/12/03 05:21:26;;;;;;;14.25;8.82;;;179.50;2252.80;;;;;;5047617;28;20029;-76
2021/12/03 05:24:16;;;;;;;12.57;5.38;;;179.50;2252.80;;;;;;5055284;28;20119;-77
2021/12/03 05:26:57;;;;;;;6.00;3.78;;;179.50;2252.80;;;;;;5071377;28;20039;-76
2021/12/03 05:29:38;;;;;;;6.70;4.40;;;179.60;2252.80;;;;;;5055947;28;20059;-75
2021/12/03 05:32:07;;;;;;;5.72;4.00;;;179.50;2252.80;;;;;;5055394;28;20036;-75
2021/12/03 05:34:39;;;;;;;5.20;3.70;;;179.60;2252.80;;;;;;5055289;28;20024;-75
2021/12/03 05:37:08;;;;;;;7.97;3.72;;;179.60;2252.80;;;;;;5055774;28;20127;-76
2021/12/03 05:39:38;;;;;;;6.00;3.63;;;179.60;2252.80;;;;;;5072663;28;20021;-75
2021/12/03 05:42:26;;;;;;;6.78;3.47;;;179.60;2252.80;;;;;;5040267;28;20476;-75
2021/12/03 05:45:09;;;;;;;4.78;3.08;;;179.60;2252.80;;;;;;5064243;28;20083;-76
2021/12/03 05:53:29;;;;;;;5.85;3.55;;;179.60;2252.80;;;;;;5069060;28;20035;-76
2021/12/03 05:56:07;;;;;;;6.82;3.90;;;179.60;2252.80;;;;;;5061279;28;20056;-76
2021/12/03 05:58:39;;;;;;;7.30;3.42;;;179.50;2252.80;;;;;;5048425;28;20116;-76
2021/12/03 06:01:29;;;;;;;6.35;3.63;;;179.50;2252.80;;;;;;5068712;28;20028;-77
2021/12/03 06:04:17;;;;;;;10.15;4.53;;;179.60;2252.80;;;;;;5068113;28;20483;-76
2021/12/03 06:07:17;;;;;;;6.63;4.70;;;179.50;2252.80;;;;;;5055091;28;20066;-77
2021/12/03 06:09:43;;;;;;;10.25;4.95;;;179.60;2252.80;;;;;;5063183;28;20033;-77
2021/12/03 06:12:09;;;;;;;10.57;5.80;;;179.50;2252.80;;;;;;5054124;28;20139;-76
2021/12/03 06:14:42;;;;;;;8.60;5.60;;;179.60;2252.80;;;;;;5066147;28;20511;-76
2021/12/03 06:17:26;;;;;;;7.78;5.13;;;179.60;2252.80;;;;;;5069531;28;20021;-74
2021/12/03 06:19:52;;;;;;;8.30;5.07;;;179.60;2252.80;;;;;;5065837;28;20025;-75
2021/12/03 06:22:52;;;;;;;8.57;5.75;;;179.70;2252.80;;;;;;5061191;28;20082;-74
2021/12/03 06:25:22;;;;;;;11.23;7.00;;;179.70;2252.80;;;;;;5069360;28;20017;-74
2021/12/03 06:28:09;;;;;;;8.23;5.07;;;179.60;2252.80;;;;;;5072261;28;20556;-74
2021/12/03 06:30:41;;;;;;;9.82;6.60;;;179.70;2252.80;;;;;;5052193;28;20029;-74
2021/12/03 06:33:06;;;;;;;12.35;7.15;;;179.70;2252.80;;;;;;5051672;28;20033;-76
2021/12/03 06:35:32;;;;;;;9.10;6.25;;;179.60;2252.80;;;;;;5054376;28;20108;-76
2021/12/03 06:38:14;;;;;;;10.10;7.47;;;179.60;2252.80;;;;;;5053121;28;20030;-76
2021/12/03 06:40:53;;;;;;;12.13;7.45;;;179.60;2252.80;;;;;;5066625;28;20032;-75
2021/12/03 06:43:22;;;;;;;12.98;7.57;;;179.60;2252.80;;;;;;5065523;28;20066;-75
2021/12/03 06:45:54;;;;;;;14.77;8.70;;;179.70;2252.80;;;;;;5071075;28;20051;-75
2021/12/03 06:48:34;;;;;;;9.68;7.25;;;179.60;2252.80;;;;;;5034113;28;20057;-75
2021/12/03 06:51:25;;;;;;;10.77;7.15;;;179.60;2252.80;;;;;;5059362;28;20032;-76
2021/12/03 06:54:05;;;;;;;10.93;7.43;;;179.60;2252.80;;;;;;5043960;28;20059;-75
2021/12/03 06:56:47;;;;;;;12.30;8.15;;;179.60;2252.80;;;;;;5045271;28;20519;-76
2021/12/03 06:59:25;;;;;;;13.70;8.48;;;179.70;2252.80;;;;;;5030955;28;20029;-76
2021/12/03 07:01:57;;;;;;;12.60;9.60;;;179.60;2252.80;;;;;;5028819;28;20480;-76
2021/12/03 07:04:35;;;;;;;20.90;12.25;;;179.60;2252.80;;;;;;5028602;28;20033;-77
2021/12/03 07:07:46;;;;;;;13.15;8.80;;;179.60;2252.80;;;;;;5031263;28;20036;-76
2021/12/03 07:10:31;;;;;;;12.73;8.00;;;179.50;2252.80;;;;;;5029591;28;20030;-76
2021/12/03 07:12:57;;;;;;;14.90;8.80;;;179.50;2252.80;;;;;;5056974;28;20021;-76
2021/12/03 07:15:42;;;;;;;13.43;8.75;;;179.50;2252.80;;;;;;5030008;28;20443;-76
2021/12/03 07:18:07;;;;;;;19.40;12.05;;;179.70;2252.80;;;;;;5038472;28;20037;-76
2021/12/03 07:20:36;;;;;;;16.85;11.25;;;179.60;2252.80;;;;;;5023370;28;20041;-76
2021/12/03 07:23:27;;;;;;;16.20;10.52;;;179.70;2252.80;;;;;;5024544;28;20030;-77
2021/12/03 07:25:57;;;;;;;16.15;10.60;;;179.60;2252.80;;;;;;5043403;28;20397;-76
2021/12/03 07:29:02;;;;;;;16.30;11.25;;;179.70;2252.80;;;;;;5031507;28;20029;-76
2021/12/03 07:31:28;;;;;;;20.25;12.82;;;179.70;2252.80;;;;;;5062322;28;20034;-76
2021/12/03 07:34:11;;;;;;;17.65;12.13;;;179.70;2252.80;;;;;;5038453;28;20041;-76
2021/12/03 07:37:14;;;;;;;16.92;11.48;;;179.70;2252.80;;;;;;5030122;28;20061;-76
2021/12/03 07:39:46;;;;;;;20.05;12.00;;;179.80;2252.80;;;;;;5027791;28;20025;-76
2021/12/03 07:42:27;;;;;;;19.60;12.27;;;179.70;2252.80;;;;;;5029638;28;20032;-75
2021/12/03 07:45:00;;;;;;;20.65;15.23;;;179.80;2252.80;;;;;;5043298;28;20038;-76
2021/12/03 07:47:38;;;;;;;20.85;12.75;;;179.70;2252.80;;;;;;5030842;28;20033;-76
2021/12/03 07:50:41;;;;;;;24.70;13.65;;;179.80;2252.80;;;;;;5024470;28;20037;-76
2021/12/03 07:53:26;;;;;;;17.70;12.10;;;179.80;2252.80;;;;;;5046708;28;20045;-76
2021/12/03 07:56:10;;;;;;;20.40;12.23;;;179.80;2252.80;;;;;;5059217;28;20049;-76
2021/12/03 07:58:39;;;;;;;21.13;12.88;;;179.80;2252.80;;;;;;5056716;28;20426;-76
2021/12/03 08:01:29;;;;;;;31.17;20.48;;;179.80;2252.80;;;;;;5074572;28;20518;-76
2021/12/03 08:04:20;;;;;;;29.42;19.70;;;179.80;2252.80;;;;;;5055892;28;20450;-76
2021/12/03 08:06:52;;;;;;;22.77;14.75;;;179.90;2252.80;;;;;;5070422;28;20028;-76
2021/12/03 08:09:40;;;;;;;27.58;17.08;;;179.90;2252.80;;;;;;5074685;28;20020;-76
2021/12/03 08:12:18;;;;;;;28.17;18.38;;;180.00;2252.80;;;;;;5072189;28;20107;-76
2021/12/03 08:15:04;;;;;;;31.48;19.10;;;180.00;2252.80;;;;;;5049335;28;20725;-76
2021/12/03 08:17:42;;;;;;;27.20;18.50;;;180.10;2252.80;;;;;;5074827;28;20028;-76
2021/12/03 08:20:30;;;;;;;28.90;18.92;;;204.80;2252.80;;;;;;5067011;28;20384;-76
2021/12/03 08:23:02;;;;;;;31.90;21.98;;;204.80;2252.80;;;;;;5073009;28;20103;-76
2021/12/03 08:26:02;;;;;;;25.92;18.00;;;204.90;2252.80;;;;;;5048934;28;20020;-76
2021/12/03 08:28:32;;;;;;;26.33;17.95;;;205.00;2252.80;;;;;;5071149;28;20016;-76
2021/12/03 08:31:11;;;;;;;27.63;18.48;;;205.00;2252.80;;;;;;5070534;28;20028;-76
2021/12/03 08:33:41;;;;;;;25.27;17.40;;;205.10;2252.80;;;;;;5073658;28;20021;-76
2021/12/03 08:36:16;;;;;;;25.25;17.63;;;205.00;2252.80;;;;;;5070658;28;20017;-76
2021/12/03 08:38:51;;;;;;;20.17;13.95;;;205.00;2252.80;;;;;;5074026;28;20021;-76
2021/12/03 08:41:23;;;;;;;21.65;15.50;;;205.00;2252.80;;;;;;5073920;28;20028;-76
2021/12/03 08:43:55;;;;;;;24.45;18.02;;;205.00;2252.80;;;;;;5053041;28;20028;-76
2021/12/03 08:46:35;;;;;;;27.10;15.80;;;205.00;2252.80;;;;;;5055813;28;20025;-75
2021/12/03 08:54:53;;;;;;;27.65;19.42;;;204.90;2252.80;;;;;;5071414;28;20391;-76
2021/12/03 08:57:39;;;;;;;26.13;18.65;;;204.90;2252.80;;;;;;5073510;28;20028;-76
2021/12/03 09:00:24;;;;;;;27.27;18.10;;;204.80;2252.80;;;;;;5047328;28;20120;-76
2021/12/03 09:02:57;;;;;;;31.13;21.40;;;204.80;2252.80;;;;;;5053333;28;20424;-76
2021/12/03 09:05:36;;;;;;;25.40;16.10;;;204.80;2252.80;;;;;;5073350;28;20032;-76
2021/12/03 09:08:09;;;;;;;23.77;18.45;;;204.80;2252.80;;;;;;5072290;28;20093;-76
2021/12/03 09:10:47;;;;;;;21.52;15.15;;;204.80;2252.80;;;;;;5072006;28;20033;-76
2021/12/03 09:16:10;;;;;;;27.80;17.92;;;204.80;2252.80;;;;;;5070942;28;20056;-76
2021/12/03 09:18:50;;;;;;;30.88;20.27;;;204.90;2252.80;;;;;;5055258;28;20159;-76
2021/12/03 09:21:35;;;;;;;29.60;21.17;;;204.80;2252.80;;;;;;5055752;28;20036;-76
2021/12/03 09:27:32;;;;;;;37.58;23.75;;;204.90;2252.80;;;;;;5073583;28;20067;-76
2021/12/03 09:30:19;;;;;;;39.78;25.00;;;204.90;2252.80;;;;;;5069156;28;20119;-76
2021/12/03 09:33:28;;;;;;;34.95;21.52;;;204.90;2252.80;;;;;;5070801;28;20747;-76
2021/12/03 09:36:08;;;;;;;32.97;19.48;;;204.90;2252.80;;;;;;5055114;28;20040;-76
2021/12/03 09:38:35;;;;;;;29.30;20.25;;;204.90;2252.80;;;;;;5054963;28;20066;-76
2021/12/03 09:43:59;;;;;;;30.48;21.27;;;204.90;2252.80;;;;;;5073156;28;20495;-76
2021/12/03 09:49:54;;;;;;;35.50;22.55;;;204.90;2252.80;;;;;;5067260;28;20158;-75
2021/12/03 09:55:35;;;;;;;35.90;23.08;;;204.90;2252.80;;;;;;5072751;28;20083;-76
2021/12/03 10:04:04;;;;;;;45.25;27.48;;;204.90;2252.80;;;;;;5068207;28;20036;-76
2021/12/03 10:19:01;;;;;;;39.08;28.02;;;205.00;2252.80;;;;;;5070123;28;20025;-75
2021/12/03 10:52:35;;;;;;;28.60;20.92;;;205.20;2252.80;;;;;;5072008;28;20399;-75
2021/12/03 11:31:01;;;;;;;10.85;8.15;;;205.00;2252.80;;;;;;4912963;29;20047;-76
2021/12/03 14:11:27;;;;;;;16.65;10.38;;;180.00;2252.80;;;;;;4969198;28;20082;-76
2021/12/03 14:56:16;;;;;;;19.25;12.95;;;179.80;2252.80;;;;;;5047472;28;20088;-76
2021/12/03 14:58:51;;;;;;;20.98;12.52;;;179.80;2252.80;;;;;;5026560;28;20088;-76
2021/12/03 15:04:45;;;;;;;26.98;15.32;;;179.80;2252.80;;;;;;4968624;28;20019;-76
2021/12/03 15:07:37;;;;;;;29.45;18.65;;;179.70;2252.80;;;;;;4970859;28;20039;-75
2021/12/03 15:10:15;;;;;;;38.50;19.90;;;179.70;2252.80;;;;;;4977520;28;20035;-76
2021/12/03 15:18:40;;;;;;;28.33;20.27;;;179.70;2252.80;;;;;;4971497;28;20041;-77
2021/12/03 15:24:59;;;;;;;21.13;15.40;;;179.70;2252.80;;;;;;4971233;28;20067;-77
2021/12/03 15:33:49;;;;;;;39.75;21.63;;;179.60;2252.80;;;;;;4951662;29;20031;-77
2021/12/03 15:36:55;;;;;;;27.10;19.35;;;179.60;2252.80;;;;;;5020155;28;20041;-77
2021/12/03 15:57:23;;;;;;;49.95;28.73;;;179.40;2252.80;;;;;;5044646;28;20052;-76
2021/12/03 16:44:58;;;;;;;50.47;29.48;;;154.40;2252.80;;;;;;4962980;28;20121;-73
2021/12/03 16:53:00;;;;;;;52.45;31.33;;;154.40;2252.80;;;;;;4987514;28;20508;-76
2021/12/03 16:55:27;;;;;;;54.60;31.45;;;154.40;2252.80;;;;;;4966437;28;20034;-74
2021/12/03 16:57:54;;;;;;;49.22;27.05;;;154.40;2252.80;;;;;;4998252;28;20077;-74
2021/12/03 17:00:37;;;;;;;39.45;22.90;;;154.40;2252.80;;;;;;4993506;28;20030;-74
2021/12/03 17:03:19;;;;;;;38.80;25.38;;;154.40;2252.80;;;;;;4986063;28;20034;-74
2021/12/03 17:09:15;;;;;;;35.08;24.05;;;154.40;2252.80;;;;;;4949661;28;20540;-76
2021/12/03 17:18:17;;;;;;;37.47;21.77;;;154.40;2252.80;;;;;;4914862;29;20040;-75
2021/12/03 17:49:39;;;;;;;56.30;30.27;;;154.40;2252.80;;;;;;4888709;29;20049;-74
2021/12/03 18:00:30;;;;;;;45.25;28.08;;;154.40;2252.80;;;;;;4928280;29;20094;-74
2021/12/03 18:03:45;;;;;;;47.97;29.67;;;154.40;2252.80;;;;;;4927880;29;20034;-75
2021/12/03 18:17:02;;;;;;;51.63;29.75;;;154.50;2252.80;;;;;;4931404;29;20047;-72
2021/12/03 18:47:26;;;;;;;63.33;34.58;;;154.40;2252.80;;;;;;5044919;28;20044;-76
2021/12/03 18:56:49;;;;;;;39.75;24.48;;;154.00;2252.80;;;;;;5043986;28;20037;-76
2021/12/03 18:59:16;;;;;;;34.08;20.10;;;153.80;2252.80;;;;;;5024581;28;20036;-75
2021/12/03 19:01:42;;;;;;;35.05;19.45;;;153.70;2252.80;;;;;;5042685;28;20219;-75
2021/12/03 19:14:19;;;;;;;17.58;11.98;;;128.70;2252.80;;;;;;5042142;28;20399;-75
2021/12/03 19:16:45;;;;;;;20.77;11.43;;;128.60;2252.80;;;;;;5045975;28;20043;-76
2021/12/03 19:19:14;;;;;;;16.48;9.23;;;128.50;2252.80;;;;;;5047664;28;20483;-75
2021/12/03 19:21:40;;;;;;;17.10;8.77;;;128.40;2252.80;;;;;;5043264;28;20025;-75
2021/12/03 19:24:09;;;;;;;19.52;9.75;;;128.30;2252.80;;;;;;5037726;28;20105;-75
2021/12/03 19:26:36;;;;;;;19.83;10.20;;;128.20;2252.80;;;;;;5045631;28;20017;-76
2021/12/03 19:29:04;;;;;;;15.93;10.00;;;128.10;2252.80;;;;;;5034136;28;20104;-76
2021/12/03 19:31:31;;;;;;;22.83;9.95;;;128.00;2252.80;;;;;;5042350;28;20083;-75
2021/12/03 19:33:58;;;;;;;21.60;9.02;;;103.30;2227.20;;;;;;5046508;28;20028;-74
2021/12/03 19:36:25;;;;;;;14.50;8.88;;;103.20;2227.20;;;;;;5018105;28;20036;-75
2021/12/03 19:38:54;;;;;;;21.00;9.90;;;103.20;2227.20;;;;;;5024253;28;20053;-75
2021/12/03 19:43:54;;;;;;;22.20;14.43;;;103.10;2227.20;;;;;;5038835;28;20055;-75
2021/12/03 19:46:27;;;;;;;22.60;14.05;;;103.00;2227.20;;;;;;5022797;28;20120;-75
2021/12/03 19:51:23;;;;;;;20.13;10.68;;;102.90;2227.20;;;;;;5044075;28;20112;-75
2021/12/03 19:53:59;;;;;;;20.83;10.50;;;102.80;2227.20;;;;;;5038028;28;20029;-75
2021/12/03 19:59:38;;;;;;;15.93;10.13;;;102.70;2227.20;;;;;;5046124;28;20078;-75
2021/12/03 20:02:07;;;;;;;15.43;8.68;;;102.60;2227.20;;;;;;5054051;28;20104;-75
2021/12/03 20:04:33;;;;;;;26.95;13.18;;;102.50;2227.20;;;;;;5051015;28;20056;-75
2021/12/03 20:07:01;;;;;;;23.23;10.77;;;102.50;2227.20;;;;;;5052058;28;20416;-75
2021/12/03 20:09:35;;;;;;;16.20;9.88;;;102.40;2227.20;;;;;;5039839;28;20041;-75
2021/12/03 20:12:05;;;;;;;15.32;8.95;;;102.40;2227.20;;;;;;5044682;28;20125;-75
2021/12/03 20:14:31;;;;;;;17.67;8.23;;;77.70;2227.20;;;;;;5025477;28;20029;-74
2021/12/03 20:22:01;;;;;;;17.58;8.73;;;77.50;2227.20;;;;;;5044496;28;20784;-74
2021/12/03 20:30:47;;;;;;;21.15;11.73;;;77.40;2227.20;;;;;;5040733;28;20457;-75
2021/12/03 20:38:55;;;;;;;21.63;11.05;;;77.20;2227.20;;;;;;4963414;28;20127;-74
2021/12/03 20:41:39;;;;;;;22.55;10.82;;;77.10;2227.20;;;;;;4966044;28;20042;-74
2021/12/03 21:09:00;;;;;;;21.88;13.10;;;76.80;2227.20;;;;;;4961904;28;20170;-74
2021/12/03 21:11:33;;;;;;;24.48;12.95;;;52.10;2227.20;;;;;;4965102;28;20058;-71
2021/12/03 21:14:02;;;;;;;23.58;14.20;;;52.10;2227.20;;;;;;5058007;28;20024;-71
2021/12/03 21:22:28;;;;;;;20.73;11.25;;;76.80;2227.20;;;;;;5062259;28;20044;-71
2021/12/03 21:25:19;;;;;;;19.20;9.82;;;76.80;2227.20;;;;;;5045989;28;20048;-72
2021/12/03 21:31:18;;;;;;;17.15;10.35;;;52.10;2227.20;;;;;;5057905;28;20032;-72
2021/12/03 21:42:13;;;;;;;19.63;11.13;;;51.90;2227.20;;;;;;5044642;28;20494;-75
2021/12/03 21:44:38;;;;;;;17.40;10.65;;;52.00;2227.20;;;;;;5039733;28;20063;-75
2021/12/03 21:47:14;;;;;;;18.45;9.93;;;52.00;2227.20;;;;;;5042429;28;20483;-75
2021/12/03 21:49:46;;;;;;;20.75;12.23;;;52.00;2227.20;;;;;;5037977;28;20025;-74
2021/12/03 21:52:17;;;;;;;23.15;12.30;;;52.00;2227.20;;;;;;5037498;28;20030;-74
2021/12/03 21:55:07;;;;;;;24.15;14.43;;;52.00;2227.20;;;;;;5040467;28;20079;-74
2021/12/03 21:57:36;;;;;;;29.30;15.95;;;52.00;2227.20;;;;;;5040939;28;20048;-74
2021/12/03 22:00:09;;;;;;;31.80;18.30;;;52.00;2227.20;;;;;;5040153;28;20126;-73
2021/12/03 22:02:35;;;;;;;39.92;23.92;;;51.90;2227.20;;;;;;5041400;28;20040;-74
2021/12/03 22:05:11;;;;;;;37.72;22.58;;;51.90;2227.20;;;;;;5040917;28;20036;-74
2021/12/03 22:07:36;;;;;;;36.45;21.42;;;51.90;2227.20;;;;;;5040562;28;20219;-74
2021/12/03 22:10:03;;;;;;;37.75;21.48;;;51.90;2227.20;;;;;;5034481;28;20135;-74
2021/12/03 22:12:29;;;;;;;37.97;21.75;;;51.90;2227.20;;;;;;5040040;28;20105;-74
2021/12/03 22:14:55;;;;;;;29.80;18.55;;;51.90;2227.20;;;;;;5036881;28;20032;-74
2021/12/03 22:17:21;;;;;;;30.83;16.33;;;51.80;2227.20;;;;;;5026571;28;20496;-74
2021/12/03 22:19:47;;;;;;;25.83;15.35;;;51.80;2227.20;;;;;;5032870;28;20555;-75
2021/12/03 22:22:13;;;;;;;34.42;17.75;;;51.80;2227.20;;;;;;5028296;28;20129;-74
2021/12/03 22:24:41;;;;;;;36.88;19.27;;;51.90;2227.20;;;;;;5046023;28;20025;-74
2021/12/03 22:27:44;;;;;;;43.50;19.17;;;51.80;2227.20;;;;;;5041409;28;20535;-74
2021/12/03 22:30:10;;;;;;;34.70;16.30;;;51.80;2227.20;;;;;;5050662;28;20040;-73
2021/12/03 22:32:42;;;;;;;30.55;15.27;;;51.70;2227.20;;;;;;5036144;28;20037;-73
2021/12/03 22:35:13;;;;;;;31.00;17.30;;;51.70;2227.20;;;;;;5026614;28;20182;-73
2021/12/03 22:38:07;;;;;;;23.52;13.98;;;51.70;2227.20;;;;;;5051194;28;20025;-74
2021/12/03 22:40:38;;;;;;;27.02;13.80;;;51.70;2227.20;;;;;;5034998;28;20477;-74
2021/12/03 22:43:08;;;;;;;22.98;12.05;;;51.70;2227.20;;;;;;5040539;28;20027;-74
2021/12/03 22:45:39;;;;;;;26.38;14.98;;;51.60;2227.20;;;;;;5038039;28;20038;-74
2021/12/03 22:48:33;;;;;;;26.40;14.90;;;51.60;2227.20;;;;;;5039504;28;20045;-74
2021/12/03 22:53:31;;;;;;;27.27;16.80;;;51.60;2227.20;;;;;;5046962;28;20025;-74